sensor_id;sensor_type;location;lat;lon;timestamp;temperature;humidity
25556;DHT22;13447;57.174;-2.112;2023-06-10T00:00:26;10.60;99.90
25556;DHT22;13447;57.174;-2.112;2023-06-10T00:02:53;10.50;99.90
25556;DHT22;13447;57.174;-2.112;2023-06-10T00:05:20;10.50;99.90
25556;DHT22;13447;57.174;-2.112;2023-06-10T00:07:48;10.50;99.90
25556;DHT22;13447;57.174;-2.112;2023-06-10T00:10:16;10.50;99.90
25556;DHT22;13447;57.174;-2.112;2023-06-10T00:12:43;10.50;99.90
25556;DHT22;13447;57.174;-2.112;2023-06-10T00:15:10;10.50;99.90
25556;DHT22;13447;57.174;-2.112;2023-06-10T00:17:37;10.50;99.90
25556;DHT22;13447;57.174;-2.112;2023-06-10T00:20:07;10.50;99.90
25556;DHT22;13447;57.174;-2.112;2023-06-10T00:22:35;10.50;99.90
25556;DHT22;13447;57.174;-2.112;2023-06-10T00:25:03;10.50;99.90
25556;DHT22;13447;57.174;-2.112;2023-06-10T00:27:30;10.50;99.90
25556;DHT22;13447;57.174;-2.112;2023-06-10T00:30:04;10.50;99.90
25556;DHT22;13447;57.174;-2.112;2023-06-10T00:32:36;10.50;99.90
25556;DHT22;13447;57.174;-2.112;2023-06-10T00:35:04;10.40;99.90
25556;DHT22;13447;57.174;-2.112;2023-06-10T00:37:31;10.40;99.90
25556;DHT22;13447;57.174;-2.112;2023-06-10T00:39:58;10.40;99.90
25556;DHT22;13447;57.174;-2.112;2023-06-10T00:42:25;10.40;99.90
25556;DHT22;13447;57.174;-2.112;2023-06-10T00:47:19;10.30;99.90
25556;DHT22;13447;57.174;-2.112;2023-06-10T00:49:47;10.30;99.90
25556;DHT22;13447;57.174;-2.112;2023-06-10T00:52:14;10.30;99.90
25556;DHT22;13447;57.174;-2.112;2023-06-10T00:54:42;10.30;99.90
25556;DHT22;13447;57.174;-2.112;2023-06-10T00:57:09;10.30;99.90
25556;DHT22;13447;57.174;-2.112;2023-06-10T00:59:36;10.30;99.90
25556;DHT22;13447;57.174;-2.112;2023-06-10T01:02:03;10.30;99.90
25556;DHT22;13447;57.174;-2.112;2023-06-10T01:04:30;10.30;99.90
25556;DHT22;13447;57.174;-2.112;2023-06-10T01:07:04;10.20;99.90
25556;DHT22;13447;57.174;-2.112;2023-06-10T01:09:48;10.20;99.90
25556;DHT22;13447;57.174;-2.112;2023-06-10T01:14:56;10.30;99.90
25556;DHT22;13447;57.174;-2.112;2023-06-10T01:17:23;10.20;99.90
25556;DHT22;13447;57.174;-2.112;2023-06-10T01:19:56;10.20;99.90
25556;DHT22;13447;57.174;-2.112;2023-06-10T01:22:27;10.20;99.90
25556;DHT22;13447;57.174;-2.112;2023-06-10T01:25:03;10.20;99.90
25556;DHT22;13447;57.174;-2.112;2023-06-10T01:27:30;10.20;99.90
25556;DHT22;13447;57.174;-2.112;2023-06-10T01:30:00;10.20;99.90
25556;DHT22;13447;57.174;-2.112;2023-06-10T01:32:32;10.20;99.90
25556;DHT22;13447;57.174;-2.112;2023-06-10T01:35:01;10.30;99.90
25556;DHT22;13447;57.174;-2.112;2023-06-10T01:37:29;10.30;99.90
25556;DHT22;13447;57.174;-2.112;2023-06-10T01:39:57;10.40;99.90
25556;DHT22;13447;57.174;-2.112;2023-06-10T01:42:25;10.40;99.90
25556;DHT22;13447;57.174;-2.112;2023-06-10T01:44:52;10.40;99.90
25556;DHT22;13447;57.174;-2.112;2023-06-10T01:47:19;10.40;99.90
25556;DHT22;13447;57.174;-2.112;2023-06-10T01:49:46;10.40;99.90
25556;DHT22;13447;57.174;-2.112;2023-06-10T01:52:13;10.40;99.90
25556;DHT22;13447;57.174;-2.112;2023-06-10T01:54:39;10.50;99.90
25556;DHT22;13447;57.174;-2.112;2023-06-10T01:57:06;10.50;99.90
25556;DHT22;13447;57.174;-2.112;2023-06-10T01:59:33;10.50;99.90
25556;DHT22;13447;57.174;-2.112;2023-06-10T02:02:00;10.50;99.90
25556;DHT22;13447;57.174;-2.112;2023-06-10T02:04:27;10.60;99.90
25556;DHT22;13447;57.174;-2.112;2023-06-10T02:06:53;10.60;99.90
25556;DHT22;13447;57.174;-2.112;2023-06-10T02:09:22;10.60;99.90
25556;DHT22;13447;57.174;-2.112;2023-06-10T02:11:49;10.60;99.90
25556;DHT22;13447;57.174;-2.112;2023-06-10T02:14:16;10.70;99.90
25556;DHT22;13447;57.174;-2.112;2023-06-10T02:16:43;10.70;99.90
25556;DHT22;13447;57.174;-2.112;2023-06-10T02:19:12;10.70;99.90
25556;DHT22;13447;57.174;-2.112;2023-06-10T02:21:39;10.70;99.90
25556;DHT22;13447;57.174;-2.112;2023-06-10T02:24:06;10.70;99.90
25556;DHT22;13447;57.174;-2.112;2023-06-10T02:26:33;10.70;99.90
25556;DHT22;13447;57.174;-2.112;2023-06-10T02:29:00;10.70;99.90
25556;DHT22;13447;57.174;-2.112;2023-06-10T02:31:26;10.70;99.90
25556;DHT22;13447;57.174;-2.112;2023-06-10T02:33:55;10.70;99.90
25556;DHT22;13447;57.174;-2.112;2023-06-10T02:36:23;10.70;99.90
25556;DHT22;13447;57.174;-2.112;2023-06-10T02:38:50;10.70;99.90
25556;DHT22;13447;57.174;-2.112;2023-06-10T02:41:17;10.70;99.90
25556;DHT22;13447;57.174;-2.112;2023-06-10T02:43:44;10.70;99.90
25556;DHT22;13447;57.174;-2.112;2023-06-10T02:46:11;10.80;99.90
25556;DHT22;13447;57.174;-2.112;2023-06-10T02:48:44;10.80;99.90
25556;DHT22;13447;57.174;-2.112;2023-06-10T02:51:12;10.80;99.90
25556;DHT22;13447;57.174;-2.112;2023-06-10T02:53:38;10.80;99.90
25556;DHT22;13447;57.174;-2.112;2023-06-10T02:56:05;10.80;99.90
25556;DHT22;13447;57.174;-2.112;2023-06-10T02:58:32;10.80;99.90
25556;DHT22;13447;57.174;-2.112;2023-06-10T03:00:59;10.80;99.90
25556;DHT22;13447;57.174;-2.112;2023-06-10T03:03:26;10.80;99.90
25556;DHT22;13447;57.174;-2.112;2023-06-10T03:05:54;10.80;99.90
25556;DHT22;13447;57.174;-2.112;2023-06-10T03:08:21;10.80;99.90
25556;DHT22;13447;57.174;-2.112;2023-06-10T03:10:47;10.80;99.90
25556;DHT22;13447;57.174;-2.112;2023-06-10T03:13:14;10.80;99.90
25556;DHT22;13447;57.174;-2.112;2023-06-10T03:15:41;10.80;99.90
25556;DHT22;13447;57.174;-2.112;2023-06-10T03:18:08;10.80;99.90
25556;DHT22;13447;57.174;-2.112;2023-06-10T03:20:35;10.80;99.90
25556;DHT22;13447;57.174;-2.112;2023-06-10T03:23:06;10.80;99.90
25556;DHT22;13447;57.174;-2.112;2023-06-10T03:25:33;10.80;99.90
25556;DHT22;13447;57.174;-2.112;2023-06-10T03:28:00;10.80;99.90
25556;DHT22;13447;57.174;-2.112;2023-06-10T03:30:27;10.80;99.90
25556;DHT22;13447;57.174;-2.112;2023-06-10T03:32:54;10.80;99.90
25556;DHT22;13447;57.174;-2.112;2023-06-10T03:35:21;10.80;99.90
25556;DHT22;13447;57.174;-2.112;2023-06-10T03:37:48;10.80;99.90
25556;DHT22;13447;57.174;-2.112;2023-06-10T03:40:15;10.70;99.90
25556;DHT22;13447;57.174;-2.112;2023-06-10T03:42:42;10.80;99.90
25556;DHT22;13447;57.174;-2.112;2023-06-10T03:45:10;10.80;99.90
25556;DHT22;13447;57.174;-2.112;2023-06-10T03:47:38;10.80;99.90
25556;DHT22;13447;57.174;-2.112;2023-06-10T03:50:05;10.80;99.90
25556;DHT22;13447;57.174;-2.112;2023-06-10T03:52:31;10.80;99.90
25556;DHT22;13447;57.174;-2.112;2023-06-10T03:54:58;10.80;99.90
25556;DHT22;13447;57.174;-2.112;2023-06-10T03:57:25;10.80;99.90
25556;DHT22;13447;57.174;-2.112;2023-06-10T03:59:52;10.80;99.90
25556;DHT22;13447;57.174;-2.112;2023-06-10T04:02:19;10.80;99.90
25556;DHT22;13447;57.174;-2.112;2023-06-10T04:04:46;10.80;99.90
25556;DHT22;13447;57.174;-2.112;2023-06-10T04:07:13;10.80;99.90
25556;DHT22;13447;57.174;-2.112;2023-06-10T04:09:40;10.90;99.90
25556;DHT22;13447;57.174;-2.112;2023-06-10T04:12:07;10.90;99.90
25556;DHT22;13447;57.174;-2.112;2023-06-10T04:14:35;10.90;99.90
25556;DHT22;13447;57.174;-2.112;2023-06-10T04:17:04;10.90;99.90
25556;DHT22;13447;57.174;-2.112;2023-06-10T04:19:34;10.90;99.90
25556;DHT22;13447;57.174;-2.112;2023-06-10T04:22:01;10.90;99.90
25556;DHT22;13447;57.174;-2.112;2023-06-10T04:24:31;10.90;99.90
25556;DHT22;13447;57.174;-2.112;2023-06-10T04:26:58;10.90;99.90
25556;DHT22;13447;57.174;-2.112;2023-06-10T04:29:25;11.00;99.90
25556;DHT22;13447;57.174;-2.112;2023-06-10T04:31:52;11.00;99.90
25556;DHT22;13447;57.174;-2.112;2023-06-10T04:34:19;11.00;99.90
25556;DHT22;13447;57.174;-2.112;2023-06-10T04:36:46;11.00;99.90
25556;DHT22;13447;57.174;-2.112;2023-06-10T04:39:13;11.00;99.90
25556;DHT22;13447;57.174;-2.112;2023-06-10T04:41:40;11.00;99.90
25556;DHT22;13447;57.174;-2.112;2023-06-10T04:44:06;11.00;99.90
25556;DHT22;13447;57.174;-2.112;2023-06-10T04:46:33;11.00;99.90
25556;DHT22;13447;57.174;-2.112;2023-06-10T04:49:00;11.00;99.90
25556;DHT22;13447;57.174;-2.112;2023-06-10T04:51:27;11.00;99.90
25556;DHT22;13447;57.174;-2.112;2023-06-10T04:53:54;11.00;99.90
25556;DHT22;13447;57.174;-2.112;2023-06-10T04:56:21;11.00;99.90
25556;DHT22;13447;57.174;-2.112;2023-06-10T04:58:48;11.10;99.90
25556;DHT22;13447;57.174;-2.112;2023-06-10T05:01:14;11.10;99.90
25556;DHT22;13447;57.174;-2.112;2023-06-10T05:03:41;11.10;99.90
25556;DHT22;13447;57.174;-2.112;2023-06-10T05:06:08;11.10;99.90
25556;DHT22;13447;57.174;-2.112;2023-06-10T05:08:35;11.10;99.90
25556;DHT22;13447;57.174;-2.112;2023-06-10T05:11:02;11.20;99.90
25556;DHT22;13447;57.174;-2.112;2023-06-10T05:13:29;11.20;99.90
25556;DHT22;13447;57.174;-2.112;2023-06-10T05:15:56;11.20;99.90
25556;DHT22;13447;57.174;-2.112;2023-06-10T05:18:23;11.20;99.90
25556;DHT22;13447;57.174;-2.112;2023-06-10T05:20:49;11.30;99.90
25556;DHT22;13447;57.174;-2.112;2023-06-10T05:23:16;11.40;99.90
25556;DHT22;13447;57.174;-2.112;2023-06-10T05:25:43;11.50;99.90
25556;DHT22;13447;57.174;-2.112;2023-06-10T05:28:10;11.60;99.90
25556;DHT22;13447;57.174;-2.112;2023-06-10T05:30:41;11.50;99.90
25556;DHT22;13447;57.174;-2.112;2023-06-10T05:33:08;11.50;99.90
25556;DHT22;13447;57.174;-2.112;2023-06-10T05:35:35;11.60;99.90
25556;DHT22;13447;57.174;-2.112;2023-06-10T05:38:02;11.60;99.90
25556;DHT22;13447;57.174;-2.112;2023-06-10T05:40:29;11.60;99.90
25556;DHT22;13447;57.174;-2.112;2023-06-10T05:42:56;11.60;99.90
25556;DHT22;13447;57.174;-2.112;2023-06-10T05:45:23;11.70;99.90
25556;DHT22;13447;57.174;-2.112;2023-06-10T05:47:50;11.60;99.90
25556;DHT22;13447;57.174;-2.112;2023-06-10T05:50:17;11.80;99.90
25556;DHT22;13447;57.174;-2.112;2023-06-10T05:52:44;11.90;99.90
25556;DHT22;13447;57.174;-2.112;2023-06-10T05:55:11;12.00;99.90
25556;DHT22;13447;57.174;-2.112;2023-06-10T05:57:38;12.10;99.90
25556;DHT22;13447;57.174;-2.112;2023-06-10T06:00:05;12.00;99.90
25556;DHT22;13447;57.174;-2.112;2023-06-10T06:02:32;12.00;99.90
25556;DHT22;13447;57.174;-2.112;2023-06-10T06:04:58;11.90;99.90
25556;DHT22;13447;57.174;-2.112;2023-06-10T06:07:26;11.90;99.90
25556;DHT22;13447;57.174;-2.112;2023-06-10T06:09:52;11.90;99.90
25556;DHT22;13447;57.174;-2.112;2023-06-10T06:12:19;11.90;99.90
25556;DHT22;13447;57.174;-2.112;2023-06-10T06:14:46;12.00;99.90
25556;DHT22;13447;57.174;-2.112;2023-06-10T06:17:13;12.00;99.90
25556;DHT22;13447;57.174;-2.112;2023-06-10T06:19:40;12.00;99.90
25556;DHT22;13447;57.174;-2.112;2023-06-10T06:22:07;12.20;99.90
25556;DHT22;13447;57.174;-2.112;2023-06-10T06:24:33;12.30;99.90
25556;DHT22;13447;57.174;-2.112;2023-06-10T06:27:00;12.40;99.90
25556;DHT22;13447;57.174;-2.112;2023-06-10T06:29:27;12.50;99.90
25556;DHT22;13447;57.174;-2.112;2023-06-10T06:31:57;12.60;99.90
25556;DHT22;13447;57.174;-2.112;2023-06-10T06:34:24;12.70;99.90
25556;DHT22;13447;57.174;-2.112;2023-06-10T06:36:50;12.70;99.90
25556;DHT22;13447;57.174;-2.112;2023-06-10T06:39:17;12.70;99.90
25556;DHT22;13447;57.174;-2.112;2023-06-10T06:41:44;12.70;99.90
25556;DHT22;13447;57.174;-2.112;2023-06-10T06:44:11;12.70;99.90
25556;DHT22;13447;57.174;-2.112;2023-06-10T06:46:38;12.60;99.90
25556;DHT22;13447;57.174;-2.112;2023-06-10T06:49:04;12.70;99.90
25556;DHT22;13447;57.174;-2.112;2023-06-10T06:51:31;12.80;99.90
25556;DHT22;13447;57.174;-2.112;2023-06-10T06:53:58;13.00;99.90
25556;DHT22;13447;57.174;-2.112;2023-06-10T06:56:25;13.00;99.90
25556;DHT22;13447;57.174;-2.112;2023-06-10T06:58:54;13.10;99.90
25556;DHT22;13447;57.174;-2.112;2023-06-10T07:01:23;13.00;99.90
25556;DHT22;13447;57.174;-2.112;2023-06-10T07:03:50;13.00;99.90
25556;DHT22;13447;57.174;-2.112;2023-06-10T07:06:17;13.10;99.90
25556;DHT22;13447;57.174;-2.112;2023-06-10T07:08:44;13.40;99.90
25556;DHT22;13447;57.174;-2.112;2023-06-10T07:11:11;13.50;99.90
25556;DHT22;13447;57.174;-2.112;2023-06-10T07:13:38;13.40;99.90
25556;DHT22;13447;57.174;-2.112;2023-06-10T07:16:04;13.50;99.90
25556;DHT22;13447;57.174;-2.112;2023-06-10T07:18:31;13.50;99.90
25556;DHT22;13447;57.174;-2.112;2023-06-10T07:20:58;13.60;99.90
25556;DHT22;13447;57.174;-2.112;2023-06-10T07:23:25;13.60;99.90
25556;DHT22;13447;57.174;-2.112;2023-06-10T07:25:52;13.60;99.90
25556;DHT22;13447;57.174;-2.112;2023-06-10T07:28:18;13.70;99.90
25556;DHT22;13447;57.174;-2.112;2023-06-10T07:30:45;13.90;99.90
25556;DHT22;13447;57.174;-2.112;2023-06-10T07:33:12;13.80;99.90
25556;DHT22;13447;57.174;-2.112;2023-06-10T07:35:39;13.70;99.90
25556;DHT22;13447;57.174;-2.112;2023-06-10T07:38:06;13.90;99.90
25556;DHT22;13447;57.174;-2.112;2023-06-10T07:40:32;13.90;99.90
25556;DHT22;13447;57.174;-2.112;2023-06-10T07:43:01;13.90;99.90
25556;DHT22;13447;57.174;-2.112;2023-06-10T07:45:27;13.90;99.90
25556;DHT22;13447;57.174;-2.112;2023-06-10T07:47:54;13.90;99.90
25556;DHT22;13447;57.174;-2.112;2023-06-10T07:50:22;13.90;99.90
25556;DHT22;13447;57.174;-2.112;2023-06-10T07:52:49;14.00;99.90
25556;DHT22;13447;57.174;-2.112;2023-06-10T07:55:16;14.10;99.90
25556;DHT22;13447;57.174;-2.112;2023-06-10T07:57:42;14.10;99.90
25556;DHT22;13447;57.174;-2.112;2023-06-10T08:00:09;14.00;99.90
25556;DHT22;13447;57.174;-2.112;2023-06-10T08:02:36;14.20;99.90
25556;DHT22;13447;57.174;-2.112;2023-06-10T08:05:04;14.30;99.90
25556;DHT22;13447;57.174;-2.112;2023-06-10T08:07:31;14.60;99.90
25556;DHT22;13447;57.174;-2.112;2023-06-10T08:09:58;14.70;90.20
25556;DHT22;13447;57.174;-2.112;2023-06-10T08:12:25;14.70;92.90
25556;DHT22;13447;57.174;-2.112;2023-06-10T08:14:52;14.90;80.00
25556;DHT22;13447;57.174;-2.112;2023-06-10T08:17:18;14.90;58.90
25556;DHT22;13447;57.174;-2.112;2023-06-10T08:19:45;14.90;63.90
25556;DHT22;13447;57.174;-2.112;2023-06-10T08:22:12;14.90;49.50
25556;DHT22;13447;57.174;-2.112;2023-06-10T08:24:39;15.00;22.10
25556;DHT22;13447;57.174;-2.112;2023-06-10T08:27:06;14.90;14.70
25556;DHT22;13447;57.174;-2.112;2023-06-10T08:29:33;14.70;44.00
25556;DHT22;13447;57.174;-2.112;2023-06-10T08:32:00;14.80;26.10
25556;DHT22;13447;57.174;-2.112;2023-06-10T08:34:27;14.60;41.70
25556;DHT22;13447;57.174;-2.112;2023-06-10T08:36:54;15.00;50.30
25556;DHT22;13447;57.174;-2.112;2023-06-10T08:39:22;15.30;27.30
25556;DHT22;13447;57.174;-2.112;2023-06-10T08:44:35;15.60;1.00
25556;DHT22;13447;57.174;-2.112;2023-06-10T08:47:06;15.70;15.70
25556;DHT22;13447;57.174;-2.112;2023-06-10T08:49:36;15.90;1.00
25556;DHT22;13447;57.174;-2.112;2023-06-10T08:52:04;15.90;1.00
25556;DHT22;13447;57.174;-2.112;2023-06-10T08:54:33;16.10;14.40
25556;DHT22;13447;57.174;-2.112;2023-06-10T08:57:05;16.30;1.00
25556;DHT22;13447;57.174;-2.112;2023-06-10T08:59:32;16.20;1.00
25556;DHT22;13447;57.174;-2.112;2023-06-10T09:01:59;16.20;1.00
25556;DHT22;13447;57.174;-2.112;2023-06-10T09:04:27;16.20;1.00
25556;DHT22;13447;57.174;-2.112;2023-06-10T09:06:54;16.50;1.00
25556;DHT22;13447;57.174;-2.112;2023-06-10T09:09:22;16.70;1.00
25556;DHT22;13447;57.174;-2.112;2023-06-10T09:11:49;16.70;1.00
25556;DHT22;13447;57.174;-2.112;2023-06-10T09:14:16;16.80;1.00
25556;DHT22;13447;57.174;-2.112;2023-06-10T09:16:43;17.00;1.00
25556;DHT22;13447;57.174;-2.112;2023-06-10T09:19:10;17.10;1.00
25556;DHT22;13447;57.174;-2.112;2023-06-10T09:21:37;17.60;1.00
25556;DHT22;13447;57.174;-2.112;2023-06-10T09:24:05;17.70;1.00
25556;DHT22;13447;57.174;-2.112;2023-06-10T09:26:32;17.60;1.00
25556;DHT22;13447;57.174;-2.112;2023-06-10T09:29:05;17.70;1.00
25556;DHT22;13447;57.174;-2.112;2023-06-10T09:31:34;17.80;1.00
25556;DHT22;13447;57.174;-2.112;2023-06-10T09:34:11;17.90;1.00
25556;DHT22;13447;57.174;-2.112;2023-06-10T09:36:38;18.00;1.00
25556;DHT22;13447;57.174;-2.112;2023-06-10T09:39:13;17.90;1.00
25556;DHT22;13447;57.174;-2.112;2023-06-10T09:41:42;18.10;1.00
25556;DHT22;13447;57.174;-2.112;2023-06-10T09:44:13;18.50;99.90
25556;DHT22;13447;57.174;-2.112;2023-06-10T09:46:41;18.80;7.60
25556;DHT22;13447;57.174;-2.112;2023-06-10T09:49:08;18.80;99.90
25556;DHT22;13447;57.174;-2.112;2023-06-10T09:51:35;18.80;99.90
25556;DHT22;13447;57.174;-2.112;2023-06-10T09:54:02;18.80;99.90
25556;DHT22;13447;57.174;-2.112;2023-06-10T09:56:35;18.70;28.90
25556;DHT22;13447;57.174;-2.112;2023-06-10T09:59:03;18.80;17.10
25556;DHT22;13447;57.174;-2.112;2023-06-10T10:01:32;19.10;32.50
25556;DHT22;13447;57.174;-2.112;2023-06-10T10:04:00;19.00;42.20
25556;DHT22;13447;57.174;-2.112;2023-06-10T10:06:27;18.60;33.80
25556;DHT22;13447;57.174;-2.112;2023-06-10T10:08:56;18.60;29.00
25556;DHT22;13447;57.174;-2.112;2023-06-10T10:11:23;18.80;21.80
25556;DHT22;13447;57.174;-2.112;2023-06-10T10:13:50;19.10;37.40
25556;DHT22;13447;57.174;-2.112;2023-06-10T10:16:27;19.40;99.90
25556;DHT22;13447;57.174;-2.112;2023-06-10T10:18:59;19.50;1.00
25556;DHT22;13447;57.174;-2.112;2023-06-10T10:21:29;19.10;1.00
25556;DHT22;13447;57.174;-2.112;2023-06-10T10:24:01;18.60;1.00
25556;DHT22;13447;57.174;-2.112;2023-06-10T10:26:29;18.90;1.00
25556;DHT22;13447;57.174;-2.112;2023-06-10T10:29:00;19.40;1.00
25556;DHT22;13447;57.174;-2.112;2023-06-10T10:31:29;19.20;1.00
25556;DHT22;13447;57.174;-2.112;2023-06-10T10:34:00;19.30;1.00
25556;DHT22;13447;57.174;-2.112;2023-06-10T10:36:28;19.30;1.00
25556;DHT22;13447;57.174;-2.112;2023-06-10T10:38:56;19.40;1.00
25556;DHT22;13447;57.174;-2.112;2023-06-10T10:41:23;19.20;1.00
25556;DHT22;13447;57.174;-2.112;2023-06-10T10:43:52;19.20;1.00
25556;DHT22;13447;57.174;-2.112;2023-06-10T10:46:20;19.60;1.00
25556;DHT22;13447;57.174;-2.112;2023-06-10T10:48:49;19.70;1.00
25556;DHT22;13447;57.174;-2.112;2023-06-10T10:51:20;19.70;1.00
25556;DHT22;13447;57.174;-2.112;2023-06-10T10:56:34;20.10;1.00
25556;DHT22;13447;57.174;-2.112;2023-06-10T10:59:04;19.60;1.00
25556;DHT22;13447;57.174;-2.112;2023-06-10T11:01:41;19.70;1.00
25556;DHT22;13447;57.174;-2.112;2023-06-10T11:04:08;20.20;1.00
25556;DHT22;13447;57.174;-2.112;2023-06-10T11:06:36;20.10;1.00
25556;DHT22;13447;57.174;-2.112;2023-06-10T11:11:49;20.40;1.00
25556;DHT22;13447;57.174;-2.112;2023-06-10T11:14:17;20.70;1.00
25556;DHT22;13447;57.174;-2.112;2023-06-10T11:16:52;20.50;1.00
25556;DHT22;13447;57.174;-2.112;2023-06-10T11:19:32;20.30;1.00
25556;DHT22;13447;57.174;-2.112;2023-06-10T11:22:01;20.20;1.00
25556;DHT22;13447;57.174;-2.112;2023-06-10T11:24:29;20.20;1.00
25556;DHT22;13447;57.174;-2.112;2023-06-10T11:27:14;20.50;1.00
25556;DHT22;13447;57.174;-2.112;2023-06-10T11:29:54;20.70;1.00
25556;DHT22;13447;57.174;-2.112;2023-06-10T11:32:21;20.10;1.00
25556;DHT22;13447;57.174;-2.112;2023-06-10T11:34:52;20.00;1.00
25556;DHT22;13447;57.174;-2.112;2023-06-10T11:37:20;19.80;1.00
25556;DHT22;13447;57.174;-2.112;2023-06-10T11:39:47;20.00;1.00
25556;DHT22;13447;57.174;-2.112;2023-06-10T11:42:17;20.40;1.00
25556;DHT22;13447;57.174;-2.112;2023-06-10T11:44:53;20.60;1.00
25556;DHT22;13447;57.174;-2.112;2023-06-10T11:47:20;20.50;1.00
25556;DHT22;13447;57.174;-2.112;2023-06-10T11:49:57;20.60;1.00
25556;DHT22;13447;57.174;-2.112;2023-06-10T11:52:28;20.90;1.00
25556;DHT22;13447;57.174;-2.112;2023-06-10T11:54:55;20.30;1.00
25556;DHT22;13447;57.174;-2.112;2023-06-10T11:57:22;20.60;1.00
25556;DHT22;13447;57.174;-2.112;2023-06-10T11:59:49;20.80;1.00
25556;DHT22;13447;57.174;-2.112;2023-06-10T12:02:16;21.10;1.00
25556;DHT22;13447;57.174;-2.112;2023-06-10T12:04:43;21.20;1.00
25556;DHT22;13447;57.174;-2.112;2023-06-10T12:07:14;21.10;1.00
25556;DHT22;13447;57.174;-2.112;2023-06-10T12:09:43;20.80;1.00
25556;DHT22;13447;57.174;-2.112;2023-06-10T12:12:10;20.90;1.00
25556;DHT22;13447;57.174;-2.112;2023-06-10T12:19:58;21.50;1.00
25556;DHT22;13447;57.174;-2.112;2023-06-10T12:22:25;21.50;1.00
25556;DHT22;13447;57.174;-2.112;2023-06-10T12:24:59;21.60;1.00
25556;DHT22;13447;57.174;-2.112;2023-06-10T12:27:26;21.30;1.00
25556;DHT22;13447;57.174;-2.112;2023-06-10T12:29:56;21.30;1.00
25556;DHT22;13447;57.174;-2.112;2023-06-10T12:32:35;21.40;1.00
25556;DHT22;13447;57.174;-2.112;2023-06-10T12:35:02;21.10;1.00
25556;DHT22;13447;57.174;-2.112;2023-06-10T12:37:31;20.40;1.00
25556;DHT22;13447;57.174;-2.112;2023-06-10T12:40:01;20.30;1.00
25556;DHT22;13447;57.174;-2.112;2023-06-10T12:42:29;20.40;1.00
25556;DHT22;13447;57.174;-2.112;2023-06-10T12:44:57;19.80;1.00
25556;DHT22;13447;57.174;-2.112;2023-06-10T12:47:31;20.20;1.00
25556;DHT22;13447;57.174;-2.112;2023-06-10T12:50:02;20.10;1.00
25556;DHT22;13447;57.174;-2.112;2023-06-10T12:52:29;20.10;1.00
25556;DHT22;13447;57.174;-2.112;2023-06-10T12:54:56;19.90;1.00
25556;DHT22;13447;57.174;-2.112;2023-06-10T12:57:23;19.20;1.00
25556;DHT22;13447;57.174;-2.112;2023-06-10T12:59:51;19.20;1.00
25556;DHT22;13447;57.174;-2.112;2023-06-10T13:02:19;19.70;1.00
25556;DHT22;13447;57.174;-2.112;2023-06-10T13:04:47;19.90;1.00
25556;DHT22;13447;57.174;-2.112;2023-06-10T13:07:14;20.30;1.00
25556;DHT22;13447;57.174;-2.112;2023-06-10T13:09:41;20.30;1.00
25556;DHT22;13447;57.174;-2.112;2023-06-10T13:12:08;19.60;1.00
25556;DHT22;13447;57.174;-2.112;2023-06-10T13:14:42;19.40;1.00
25556;DHT22;13447;57.174;-2.112;2023-06-10T13:17:09;19.50;1.00
25556;DHT22;13447;57.174;-2.112;2023-06-10T13:19:35;19.20;1.00
25556;DHT22;13447;57.174;-2.112;2023-06-10T13:22:03;18.80;1.00
25556;DHT22;13447;57.174;-2.112;2023-06-10T13:24:30;18.70;1.00
25556;DHT22;13447;57.174;-2.112;2023-06-10T13:26:57;18.40;1.00
25556;DHT22;13447;57.174;-2.112;2023-06-10T13:29:24;18.00;1.00
25556;DHT22;13447;57.174;-2.112;2023-06-10T13:31:51;18.00;1.00
25556;DHT22;13447;57.174;-2.112;2023-06-10T13:34:18;18.30;1.00
25556;DHT22;13447;57.174;-2.112;2023-06-10T13:36:44;18.20;1.00
25556;DHT22;13447;57.174;-2.112;2023-06-10T13:39:11;18.10;1.00
25556;DHT22;13447;57.174;-2.112;2023-06-10T13:41:40;18.00;1.00
25556;DHT22;13447;57.174;-2.112;2023-06-10T13:44:08;18.40;1.00
25556;DHT22;13447;57.174;-2.112;2023-06-10T13:46:34;18.70;1.00
25556;DHT22;13447;57.174;-2.112;2023-06-10T13:49:01;18.50;1.00
25556;DHT22;13447;57.174;-2.112;2023-06-10T13:51:28;18.50;1.00
25556;DHT22;13447;57.174;-2.112;2023-06-10T13:53:55;18.60;1.00
25556;DHT22;13447;57.174;-2.112;2023-06-10T13:56:22;18.60;1.00
25556;DHT22;13447;57.174;-2.112;2023-06-10T13:58:49;18.10;1.00
25556;DHT22;13447;57.174;-2.112;2023-06-10T14:01:16;17.70;1.00
25556;DHT22;13447;57.174;-2.112;2023-06-10T14:03:43;17.40;1.00
25556;DHT22;13447;57.174;-2.112;2023-06-10T14:06:10;17.30;1.00
25556;DHT22;13447;57.174;-2.112;2023-06-10T14:08:39;17.30;1.00
25556;DHT22;13447;57.174;-2.112;2023-06-10T14:11:06;17.20;1.00
25556;DHT22;13447;57.174;-2.112;2023-06-10T14:13:33;17.10;1.00
25556;DHT22;13447;57.174;-2.112;2023-06-10T14:16:00;17.00;1.00
25556;DHT22;13447;57.174;-2.112;2023-06-10T14:18:29;16.80;1.00
25556;DHT22;13447;57.174;-2.112;2023-06-10T14:20:56;16.70;1.00
25556;DHT22;13447;57.174;-2.112;2023-06-10T14:23:23;16.70;1.00
25556;DHT22;13447;57.174;-2.112;2023-06-10T14:25:52;16.60;1.00
25556;DHT22;13447;57.174;-2.112;2023-06-10T14:28:19;16.40;1.00
25556;DHT22;13447;57.174;-2.112;2023-06-10T14:30:46;16.50;32.60
25556;DHT22;13447;57.174;-2.112;2023-06-10T14:33:12;16.50;82.90
25556;DHT22;13447;57.174;-2.112;2023-06-10T14:35:39;16.40;99.90
25556;DHT22;13447;57.174;-2.112;2023-06-10T14:38:06;16.40;99.90
25556;DHT22;13447;57.174;-2.112;2023-06-10T14:40:34;16.50;95.40
25556;DHT22;13447;57.174;-2.112;2023-06-10T14:43:00;16.80;29.80
25556;DHT22;13447;57.174;-2.112;2023-06-10T14:48:00;17.00;1.00
25556;DHT22;13447;57.174;-2.112;2023-06-10T14:50:27;17.20;1.00
25556;DHT22;13447;57.174;-2.112;2023-06-10T14:52:53;17.30;1.00
25556;DHT22;13447;57.174;-2.112;2023-06-10T14:55:20;16.90;1.00
25556;DHT22;13447;57.174;-2.112;2023-06-10T14:57:49;16.80;1.00
25556;DHT22;13447;57.174;-2.112;2023-06-10T15:00:16;16.80;10.80
25556;DHT22;13447;57.174;-2.112;2023-06-10T15:02:46;17.00;1.00
25556;DHT22;13447;57.174;-2.112;2023-06-10T15:05:16;17.00;1.00
25556;DHT22;13447;57.174;-2.112;2023-06-10T15:07:43;17.10;1.00
25556;DHT22;13447;57.174;-2.112;2023-06-10T15:10:10;17.10;10.20
25556;DHT22;13447;57.174;-2.112;2023-06-10T15:12:37;17.20;1.00
25556;DHT22;13447;57.174;-2.112;2023-06-10T15:15:04;17.20;1.00
25556;DHT22;13447;57.174;-2.112;2023-06-10T15:17:31;17.10;1.00
25556;DHT22;13447;57.174;-2.112;2023-06-10T15:19:57;17.30;1.70
25556;DHT22;13447;57.174;-2.112;2023-06-10T15:22:24;17.20;3.10
25556;DHT22;13447;57.174;-2.112;2023-06-10T15:24:51;17.10;15.70
25556;DHT22;13447;57.174;-2.112;2023-06-10T15:27:18;17.10;27.00
25556;DHT22;13447;57.174;-2.112;2023-06-10T15:29:44;17.20;8.00
25556;DHT22;13447;57.174;-2.112;2023-06-10T15:32:11;17.20;7.10
25556;DHT22;13447;57.174;-2.112;2023-06-10T15:34:44;17.20;31.10
25556;DHT22;13447;57.174;-2.112;2023-06-10T15:37:14;17.00;41.20
25556;DHT22;13447;57.174;-2.112;2023-06-10T15:39:41;16.90;88.00
25556;DHT22;13447;57.174;-2.112;2023-06-10T15:42:08;17.00;69.70
25556;DHT22;13447;57.174;-2.112;2023-06-10T15:44:35;16.70;81.30
25556;DHT22;13447;57.174;-2.112;2023-06-10T15:47:02;16.50;99.90